Dickel, Tennessee
Current Conditions -  °F | °C
As of 12:55 AM on Monday 24 Nov 2014 (Local Time) from KTHA Reporting Station
Overcast Overcast  
Wind Chill: 61°   Ceiling: 2400
Heat Index: 61°   Visibility: 10mi
Dew Point: 54°   Wind: 16mph
Humidity: 77%   Direction: 190°S
Pressure: 29.58"   Gusts: NA
Location:  35.3402°N, 86.229°W
Report Text: KTHA 240655Z AUTO 19014KT 10SM BKN024 OVC029 16/12 A2958 RMK
Loading
Personal Weather Stations






























Interactive Weather Map New forecast layout! Learn more

10-Day Weather Forecast

Advertisements
Track Severe Weather on mobile